West Bay Shore, New York
Current Conditions -  °F | °C
As of 1:53 AM on Sunday 21 Dec 2014 (Local Time) from KFRG Reporting Station
Overcast Overcast  
Wind Chill: 33°   Ceiling: 2200
Heat Index: 33°   Visibility: 10mi
Dew Point: 23°   Wind: 3mph
Humidity: 66%   Direction: 330°NNW
Pressure: 30.28"   Gusts: NA
Location:  40.7379°N, 73.2632°W
Report Text: KFRG 210653Z AUTO 33003KT 10SM OVC022 01/M05 A3028 RMK AO2 SLP253 T00061050
Loading
Personal Weather Stations






























Interactive Weather Map New forecast layout! Learn more

10-Day Weather Forecast

Advertisements
Track Severe Weather on mobile